createdAt,value
2023-04-23T10:58:13.250Z,17.30
2023-04-23T11:03:34.433Z,16.80
2023-04-23T11:08:51.456Z,16.30
2023-04-23T11:13:57.675Z,16.00
2023-04-23T11:19:03.994Z,16.00
2023-04-23T11:24:07.807Z,15.60
2023-04-23T11:29:15.566Z,16.00
2023-04-23T11:34:19.744Z,16.20
2023-04-23T11:39:24.327Z,16.70
2023-04-23T11:44:29.549Z,17.00
2023-04-23T11:49:32.925Z,17.40
2023-04-23T11:54:36.567Z,18.00
2023-04-23T11:59:41.939Z,18.30
2023-04-23T12:04:45.362Z,18.60
2023-04-23T12:09:48.772Z,18.50
2023-04-23T12:15:04.074Z,17.10
2023-04-23T12:20:13.270Z,17.20
2023-04-23T12:25:17.166Z,16.90
2023-04-23T12:30:22.337Z,17.20
2023-04-23T12:35:38.409Z,17.90
2023-04-23T12:40:41.880Z,19.20
2023-04-23T12:45:46.898Z,19.40
2023-04-23T12:50:50.308Z,20.10
2023-04-23T12:55:54.717Z,20.00
2023-04-23T13:01:00.323Z,18.80
2023-04-23T13:06:04.405Z,18.90
2023-04-23T13:11:07.758Z,18.40
2023-04-23T13:16:13.002Z,18.70
2023-04-23T13:21:16.604Z,18.60
2023-04-23T13:26:21.383Z,19.10
2023-04-23T13:31:26.232Z,20.80
2023-04-23T13:36:30.321Z,22.30
2023-04-23T13:41:33.559Z,22.50
2023-04-23T13:46:40.147Z,22.60
2023-04-23T13:51:44.014Z,23.10
2023-04-23T13:56:47.860Z,21.90
2023-04-23T14:01:52.504Z,22.10
2023-04-23T14:06:56.016Z,22.20
2023-04-23T14:11:59.408Z,22.10
2023-04-23T14:17:04.927Z,22.00
2023-04-23T14:22:08.602Z,22.20
2023-04-23T14:27:11.921Z,21.50
2023-04-23T14:32:17.474Z,21.50
2023-04-23T14:37:21.059Z,20.60
2023-04-23T14:42:24.880Z,20.90
2023-04-23T14:47:29.857Z,20.80
2023-04-23T14:52:33.248Z,20.00
2023-04-23T14:57:36.448Z,20.60
2023-04-23T15:02:42.111Z,21.70
2023-04-23T15:07:45.965Z,22.70
2023-04-23T15:12:58.459Z,23.10
2023-04-23T15:18:03.719Z,22.50
2023-04-23T15:23:07.484Z,21.90
2023-04-23T15:28:10.844Z,21.20
2023-04-23T15:33:17.624Z,21.70
2023-04-23T15:38:21.301Z,22.20
2023-04-23T15:43:24.655Z,22.20
2023-04-23T15:48:29.725Z,21.80
2023-04-23T15:53:33.038Z,20.80
2023-04-23T15:58:36.259Z,20.20
2023-04-23T16:03:53.546Z,19.00
2023-04-23T16:09:09.687Z,18.70
2023-04-23T16:14:13.232Z,18.30
2023-04-23T16:19:19.003Z,17.80
2023-04-23T16:24:23.249Z,18.00
2023-04-23T16:29:26.629Z,18.20
2023-04-23T16:34:31.206Z,17.90
2023-04-23T16:39:34.627Z,17.40
2023-04-23T16:44:38.000Z,17.00
2023-04-23T16:49:42.782Z,16.70
2023-04-23T16:54:46.166Z,17.00
2023-04-23T16:59:49.506Z,17.50
2023-04-23T17:04:55.326Z,17.30
2023-04-23T17:09:58.973Z,16.70
2023-04-23T17:15:02.419Z,16.20
2023-04-23T17:20:09.175Z,15.60
2023-04-23T17:25:12.658Z,15.30
2023-04-23T17:30:16.383Z,15.00
2023-04-23T17:35:21.479Z,14.90
2023-04-23T17:40:25.034Z,14.90
2023-04-23T17:45:28.457Z,14.80
2023-04-23T17:50:33.573Z,14.80
2023-04-23T17:55:37.589Z,14.70
2023-04-23T18:00:42.575Z,14.70
2023-04-23T18:05:47.244Z,14.60
2023-04-23T18:10:50.694Z,14.40
2023-04-23T18:15:54.268Z,14.00
2023-04-23T18:20:59.207Z,13.60
2023-04-23T18:26:02.577Z,13.20
2023-04-23T18:31:06.402Z,12.90
2023-04-23T18:36:21.945Z,12.50
2023-04-23T18:41:25.649Z,12.10
2023-04-23T18:46:31.204Z,11.90
2023-04-23T18:51:43.669Z,11.80
2023-04-23T18:56:47.540Z,11.80
2023-04-23T19:01:51.001Z,11.60
2023-04-23T19:06:57.463Z,11.50
2023-04-23T19:12:01.798Z,11.40
2023-04-23T19:17:05.518Z,11.30
2023-04-23T19:22:10.153Z,11.10
2023-04-23T19:27:13.519Z,10.90
2023-04-23T19:32:17.629Z,10.80
2023-04-23T19:37:23.904Z,10.60
2023-04-23T19:42:29.874Z,10.50
2023-04-23T19:47:38.741Z,10.70
2023-04-23T19:52:43.397Z,10.60
2023-04-23T19:57:47.565Z,10.60
2023-04-23T20:02:52.078Z,10.60
2023-04-23T20:07:58.276Z,10.50
2023-04-23T20:13:01.954Z,10.30
2023-04-23T20:18:06.043Z,10.50
2023-04-23T20:23:10.919Z,10.60
2023-04-23T20:28:14.575Z,10.50
2023-04-23T20:33:18.734Z,10.40
2023-04-23T20:38:23.954Z,10.30
2023-04-23T20:43:27.550Z,10.30
2023-04-23T20:48:31.016Z,10.50
2023-04-23T20:53:35.778Z,10.40
2023-04-23T20:58:39.456Z,10.40
2023-04-23T21:03:43.132Z,10.40
2023-04-23T21:08:48.127Z,10.40
2023-04-23T21:13:51.614Z,10.50
2023-04-23T21:18:54.978Z,10.50
2023-04-23T21:24:01.085Z,10.40
2023-04-23T21:29:04.511Z,10.40
2023-04-23T21:34:08.523Z,10.50
2023-04-23T21:39:13.582Z,10.40
2023-04-23T21:44:17.068Z,10.40
2023-04-23T21:49:20.958Z,10.40
2023-04-23T21:54:26.791Z,10.30
2023-04-23T21:59:30.857Z,10.50
2023-04-23T22:04:34.785Z,10.10
2023-04-23T22:09:39.960Z,10.10
2023-04-23T22:14:43.275Z,10.00
2023-04-23T22:19:46.525Z,9.90
2023-04-23T22:24:51.358Z,9.90
2023-04-23T22:29:54.924Z,10.00
2023-04-23T22:34:59.346Z,10.10
2023-04-23T22:40:05.541Z,10.30
2023-04-23T22:45:09.394Z,10.30
2023-04-23T23:13:29.094Z,10.70
2023-04-23T23:18:32.980Z,10.80
2023-04-23T23:23:37.578Z,10.70
2023-04-23T23:28:42.670Z,10.70
2023-04-23T23:33:46.069Z,10.70
2023-04-23T23:38:50.986Z,10.60
2023-04-23T23:43:56.595Z,10.60
2023-04-23T23:49:00.450Z,10.50
2023-04-23T23:54:03.981Z,10.50
2023-04-23T23:59:09.227Z,10.50
